KGPC

Putnam County Regional Airport

Greencastle, Indiana, USA
METAR KGPC 250515Z AUTO 00000KT 10SM CLR 15/11 A3008 RMK AO2
Observed Flight Rules
May-25 @ 05:15 UTC (9 minutes ago) Visual Flight Rules
Visibility Clouds
10 miles
  • Clear skies
Temperatures Readings
Current 15°C / 59°F
Dewpoint 11°C / 52°F
Humidity 77%
Altimeter 30.08" Hg
Pressure 1019 hPa
Elevation 257
METAR KGPC 250515Z AUTO 00000KT 10SM CLR 15/11 A3008 RMK AO2
Observed Flight Rules
May-25 @ 05:15 UTC
(9 minutes ago)
VFR
Clouds
  • Clear skies
Temperature Dewpoint
15°C / 59°F 11°C / 52°F
Humidity Altimeter Pressure
77% 30.08" Hg 1019 hPa